sensor_id;sensor_type;location;lat;lon;timestamp;temperature;humidity
44229;DHT22;29904;51.058;5.378;2023-07-31T00:00:17;17.00;99.90
44229;DHT22;29904;51.058;5.378;2023-07-31T00:02:43;17.00;99.90
44229;DHT22;29904;51.058;5.378;2023-07-31T00:05:09;16.90;99.90
44229;DHT22;29904;51.058;5.378;2023-07-31T00:07:35;16.90;99.90
44229;DHT22;29904;51.058;5.378;2023-07-31T00:10:01;16.90;99.90
44229;DHT22;29904;51.058;5.378;2023-07-31T00:12:26;16.90;99.90
44229;DHT22;29904;51.058;5.378;2023-07-31T00:14:52;16.90;99.90
44229;DHT22;29904;51.058;5.378;2023-07-31T00:17:18;16.80;99.90
44229;DHT22;29904;51.058;5.378;2023-07-31T00:19:44;16.80;99.90
44229;DHT22;29904;51.058;5.378;2023-07-31T00:22:11;16.70;99.90
44229;DHT22;29904;51.058;5.378;2023-07-31T00:24:37;16.70;99.90
44229;DHT22;29904;51.058;5.378;2023-07-31T00:27:04;16.70;99.90
44229;DHT22;29904;51.058;5.378;2023-07-31T00:29:30;16.60;99.90
44229;DHT22;29904;51.058;5.378;2023-07-31T00:31:56;16.60;99.90
44229;DHT22;29904;51.058;5.378;2023-07-31T00:34:21;16.60;99.90
44229;DHT22;29904;51.058;5.378;2023-07-31T00:36:47;16.60;99.90
44229;DHT22;29904;51.058;5.378;2023-07-31T00:39:13;16.50;99.90
44229;DHT22;29904;51.058;5.378;2023-07-31T00:41:39;16.60;99.90
44229;DHT22;29904;51.058;5.378;2023-07-31T00:44:04;16.60;99.90
44229;DHT22;29904;51.058;5.378;2023-07-31T00:46:30;16.70;99.90
44229;DHT22;29904;51.058;5.378;2023-07-31T00:48:56;16.70;99.90
44229;DHT22;29904;51.058;5.378;2023-07-31T00:51:22;16.80;99.90
44229;DHT22;29904;51.058;5.378;2023-07-31T00:53:48;16.80;99.90
44229;DHT22;29904;51.058;5.378;2023-07-31T00:56:14;16.80;99.90
44229;DHT22;29904;51.058;5.378;2023-07-31T00:58:41;16.80;99.90
44229;DHT22;29904;51.058;5.378;2023-07-31T01:01:06;16.80;99.90
44229;DHT22;29904;51.058;5.378;2023-07-31T01:03:32;16.90;99.90
44229;DHT22;29904;51.058;5.378;2023-07-31T01:06:09;16.90;99.90
44229;DHT22;29904;51.058;5.378;2023-07-31T01:08:48;16.90;99.90
44229;DHT22;29904;51.058;5.378;2023-07-31T01:11:24;16.90;99.90
44229;DHT22;29904;51.058;5.378;2023-07-31T01:13:51;16.90;99.90
44229;DHT22;29904;51.058;5.378;2023-07-31T01:16:17;17.00;99.90
44229;DHT22;29904;51.058;5.378;2023-07-31T01:18:43;17.00;99.90
44229;DHT22;29904;51.058;5.378;2023-07-31T01:26:38;17.00;99.90
44229;DHT22;29904;51.058;5.378;2023-07-31T01:29:17;17.10;99.90
44229;DHT22;29904;51.058;5.378;2023-07-31T01:31:48;17.00;99.90
44229;DHT22;29904;51.058;5.378;2023-07-31T01:34:17;17.10;99.90
44229;DHT22;29904;51.058;5.378;2023-07-31T01:36:44;17.10;99.90
44229;DHT22;29904;51.058;5.378;2023-07-31T01:39:09;17.10;99.90
44229;DHT22;29904;51.058;5.378;2023-07-31T01:41:35;17.10;99.90
44229;DHT22;29904;51.058;5.378;2023-07-31T01:44:01;17.20;99.90
44229;DHT22;29904;51.058;5.378;2023-07-31T01:46:26;17.20;99.90
44229;DHT22;29904;51.058;5.378;2023-07-31T01:48:52;17.30;99.90
44229;DHT22;29904;51.058;5.378;2023-07-31T01:51:18;17.30;99.90
44229;DHT22;29904;51.058;5.378;2023-07-31T01:53:44;17.30;99.90
44229;DHT22;29904;51.058;5.378;2023-07-31T01:56:09;17.30;99.90
44229;DHT22;29904;51.058;5.378;2023-07-31T01:58:35;17.30;99.90
44229;DHT22;29904;51.058;5.378;2023-07-31T02:01:00;17.30;99.90
44229;DHT22;29904;51.058;5.378;2023-07-31T02:03:26;17.30;99.90
44229;DHT22;29904;51.058;5.378;2023-07-31T02:05:54;17.40;99.90
44229;DHT22;29904;51.058;5.378;2023-07-31T02:08:20;17.40;99.90
44229;DHT22;29904;51.058;5.378;2023-07-31T02:10:45;17.40;99.90
44229;DHT22;29904;51.058;5.378;2023-07-31T02:13:11;17.50;99.90
44229;DHT22;29904;51.058;5.378;2023-07-31T02:15:37;17.50;99.90
44229;DHT22;29904;51.058;5.378;2023-07-31T02:18:03;17.50;99.90
44229;DHT22;29904;51.058;5.378;2023-07-31T02:20:28;17.50;99.90
44229;DHT22;29904;51.058;5.378;2023-07-31T02:22:54;17.40;99.90
44229;DHT22;29904;51.058;5.378;2023-07-31T02:25:20;17.50;99.90
44229;DHT22;29904;51.058;5.378;2023-07-31T02:27:45;17.40;99.90
44229;DHT22;29904;51.058;5.378;2023-07-31T02:30:11;17.50;99.90
44229;DHT22;29904;51.058;5.378;2023-07-31T02:32:37;17.50;99.90
44229;DHT22;29904;51.058;5.378;2023-07-31T02:35:03;17.50;99.90
44229;DHT22;29904;51.058;5.378;2023-07-31T02:37:29;17.50;99.90
44229;DHT22;29904;51.058;5.378;2023-07-31T02:39:54;17.50;99.90
44229;DHT22;29904;51.058;5.378;2023-07-31T02:42:20;17.50;99.90
44229;DHT22;29904;51.058;5.378;2023-07-31T02:44:46;17.50;99.90
44229;DHT22;29904;51.058;5.378;2023-07-31T02:47:11;17.50;99.90
44229;DHT22;29904;51.058;5.378;2023-07-31T02:49:37;17.50;99.90
44229;DHT22;29904;51.058;5.378;2023-07-31T02:52:03;17.40;99.90
44229;DHT22;29904;51.058;5.378;2023-07-31T02:54:29;17.40;99.90
44229;DHT22;29904;51.058;5.378;2023-07-31T02:56:54;17.40;99.90
44229;DHT22;29904;51.058;5.378;2023-07-31T02:59:20;17.40;99.90
44229;DHT22;29904;51.058;5.378;2023-07-31T03:01:46;17.50;99.90
44229;DHT22;29904;51.058;5.378;2023-07-31T03:04:12;17.50;99.90
44229;DHT22;29904;51.058;5.378;2023-07-31T03:06:37;17.50;99.90
44229;DHT22;29904;51.058;5.378;2023-07-31T03:09:03;17.50;99.90
44229;DHT22;29904;51.058;5.378;2023-07-31T03:11:29;17.50;99.90
44229;DHT22;29904;51.058;5.378;2023-07-31T03:13:54;17.50;99.90
44229;DHT22;29904;51.058;5.378;2023-07-31T03:16:20;17.50;99.90
44229;DHT22;29904;51.058;5.378;2023-07-31T03:18:46;17.50;99.90
44229;DHT22;29904;51.058;5.378;2023-07-31T03:21:12;17.50;99.90
44229;DHT22;29904;51.058;5.378;2023-07-31T03:23:38;17.60;99.90
44229;DHT22;29904;51.058;5.378;2023-07-31T03:26:07;17.60;99.90
44229;DHT22;29904;51.058;5.378;2023-07-31T03:28:32;17.60;99.90
44229;DHT22;29904;51.058;5.378;2023-07-31T03:30:58;17.60;99.90
44229;DHT22;29904;51.058;5.378;2023-07-31T03:33:24;17.60;99.90
44229;DHT22;29904;51.058;5.378;2023-07-31T03:35:50;17.50;99.90
44229;DHT22;29904;51.058;5.378;2023-07-31T03:38:16;17.50;99.90
44229;DHT22;29904;51.058;5.378;2023-07-31T03:40:41;17.50;99.90
44229;DHT22;29904;51.058;5.378;2023-07-31T03:43:07;17.50;99.90
44229;DHT22;29904;51.058;5.378;2023-07-31T03:45:33;17.60;99.90
44229;DHT22;29904;51.058;5.378;2023-07-31T03:47:59;17.60;99.90
44229;DHT22;29904;51.058;5.378;2023-07-31T03:50:24;17.60;99.90
44229;DHT22;29904;51.058;5.378;2023-07-31T03:52:50;17.50;99.90
44229;DHT22;29904;51.058;5.378;2023-07-31T03:55:16;17.50;99.90
44229;DHT22;29904;51.058;5.378;2023-07-31T03:57:42;17.60;99.90
44229;DHT22;29904;51.058;5.378;2023-07-31T04:00:08;17.60;99.90
44229;DHT22;29904;51.058;5.378;2023-07-31T04:02:34;17.50;99.90
44229;DHT22;29904;51.058;5.378;2023-07-31T04:04:59;17.60;99.90
44229;DHT22;29904;51.058;5.378;2023-07-31T04:07:25;17.50;99.90
44229;DHT22;29904;51.058;5.378;2023-07-31T04:09:51;17.60;99.90
44229;DHT22;29904;51.058;5.378;2023-07-31T04:12:16;17.60;99.90
44229;DHT22;29904;51.058;5.378;2023-07-31T04:14:42;17.60;99.90
44229;DHT22;29904;51.058;5.378;2023-07-31T04:17:08;17.60;99.90
44229;DHT22;29904;51.058;5.378;2023-07-31T04:19:33;17.60;99.90
44229;DHT22;29904;51.058;5.378;2023-07-31T04:21:59;17.60;99.90
44229;DHT22;29904;51.058;5.378;2023-07-31T04:24:24;17.60;99.90
44229;DHT22;29904;51.058;5.378;2023-07-31T04:26:51;17.60;99.90
44229;DHT22;29904;51.058;5.378;2023-07-31T04:29:17;17.70;99.90
44229;DHT22;29904;51.058;5.378;2023-07-31T04:31:43;17.70;99.90
44229;DHT22;29904;51.058;5.378;2023-07-31T04:34:08;17.70;99.90
44229;DHT22;29904;51.058;5.378;2023-07-31T04:36:35;17.70;99.90
44229;DHT22;29904;51.058;5.378;2023-07-31T04:39:01;17.70;99.90
44229;DHT22;29904;51.058;5.378;2023-07-31T04:41:27;17.70;99.90
44229;DHT22;29904;51.058;5.378;2023-07-31T04:43:53;17.60;99.90
44229;DHT22;29904;51.058;5.378;2023-07-31T04:46:19;17.70;99.90
44229;DHT22;29904;51.058;5.378;2023-07-31T04:48:44;17.70;99.90
44229;DHT22;29904;51.058;5.378;2023-07-31T04:51:10;17.60;99.90
44229;DHT22;29904;51.058;5.378;2023-07-31T04:53:36;17.50;99.90
44229;DHT22;29904;51.058;5.378;2023-07-31T04:56:02;17.50;99.90
44229;DHT22;29904;51.058;5.378;2023-07-31T04:58:28;17.40;99.90
44229;DHT22;29904;51.058;5.378;2023-07-31T05:00:53;17.40;99.90
44229;DHT22;29904;51.058;5.378;2023-07-31T05:03:19;17.40;99.90
44229;DHT22;29904;51.058;5.378;2023-07-31T05:05:45;17.30;99.90
44229;DHT22;29904;51.058;5.378;2023-07-31T05:08:10;17.30;99.90
44229;DHT22;29904;51.058;5.378;2023-07-31T05:10:36;17.30;99.90
44229;DHT22;29904;51.058;5.378;2023-07-31T05:13:02;17.20;99.90
44229;DHT22;29904;51.058;5.378;2023-07-31T05:15:28;17.20;99.90
44229;DHT22;29904;51.058;5.378;2023-07-31T05:17:54;17.10;99.90
44229;DHT22;29904;51.058;5.378;2023-07-31T05:20:20;17.10;99.90
44229;DHT22;29904;51.058;5.378;2023-07-31T05:22:46;17.00;99.90
44229;DHT22;29904;51.058;5.378;2023-07-31T05:25:12;17.10;99.90
44229;DHT22;29904;51.058;5.378;2023-07-31T05:27:38;17.10;99.90
44229;DHT22;29904;51.058;5.378;2023-07-31T05:30:05;17.10;99.90
44229;DHT22;29904;51.058;5.378;2023-07-31T05:32:31;17.20;99.90
44229;DHT22;29904;51.058;5.378;2023-07-31T05:34:56;17.10;99.90
44229;DHT22;29904;51.058;5.378;2023-07-31T05:37:23;17.20;99.90
44229;DHT22;29904;51.058;5.378;2023-07-31T05:39:48;17.20;99.90
44229;DHT22;29904;51.058;5.378;2023-07-31T05:42:14;17.10;99.90
44229;DHT22;29904;51.058;5.378;2023-07-31T05:44:40;17.20;99.90
44229;DHT22;29904;51.058;5.378;2023-07-31T05:47:06;17.20;99.90
44229;DHT22;29904;51.058;5.378;2023-07-31T05:49:31;17.20;99.90
44229;DHT22;29904;51.058;5.378;2023-07-31T05:51:57;17.20;99.90
44229;DHT22;29904;51.058;5.378;2023-07-31T05:54:23;17.20;99.90
44229;DHT22;29904;51.058;5.378;2023-07-31T05:56:49;17.20;99.90
44229;DHT22;29904;51.058;5.378;2023-07-31T05:59:16;17.30;99.90
44229;DHT22;29904;51.058;5.378;2023-07-31T06:01:42;17.30;99.90
44229;DHT22;29904;51.058;5.378;2023-07-31T06:04:08;17.20;99.90
44229;DHT22;29904;51.058;5.378;2023-07-31T06:06:34;17.20;99.90
44229;DHT22;29904;51.058;5.378;2023-07-31T06:08:59;17.20;99.90
44229;DHT22;29904;51.058;5.378;2023-07-31T06:11:25;17.20;99.90
44229;DHT22;29904;51.058;5.378;2023-07-31T06:13:51;17.20;99.90
44229;DHT22;29904;51.058;5.378;2023-07-31T06:16:16;17.20;99.90
44229;DHT22;29904;51.058;5.378;2023-07-31T06:18:42;17.20;99.90
44229;DHT22;29904;51.058;5.378;2023-07-31T06:21:09;17.20;99.90
44229;DHT22;29904;51.058;5.378;2023-07-31T06:23:35;17.10;99.90
44229;DHT22;29904;51.058;5.378;2023-07-31T06:26:01;17.00;99.90
44229;DHT22;29904;51.058;5.378;2023-07-31T06:28:31;17.00;99.90
44229;DHT22;29904;51.058;5.378;2023-07-31T06:30:57;17.00;99.90
44229;DHT22;29904;51.058;5.378;2023-07-31T06:33:23;16.90;99.90
44229;DHT22;29904;51.058;5.378;2023-07-31T06:35:49;16.90;99.90
44229;DHT22;29904;51.058;5.378;2023-07-31T06:38:14;16.90;99.90
44229;DHT22;29904;51.058;5.378;2023-07-31T06:40:40;16.80;99.90
44229;DHT22;29904;51.058;5.378;2023-07-31T06:43:06;16.80;99.90
44229;DHT22;29904;51.058;5.378;2023-07-31T06:45:36;16.80;99.90
44229;DHT22;29904;51.058;5.378;2023-07-31T06:48:03;16.70;99.90
44229;DHT22;29904;51.058;5.378;2023-07-31T06:50:30;16.70;99.90
44229;DHT22;29904;51.058;5.378;2023-07-31T06:52:57;16.70;99.90
44229;DHT22;29904;51.058;5.378;2023-07-31T06:55:23;16.70;99.90
44229;DHT22;29904;51.058;5.378;2023-07-31T06:57:50;16.60;99.90
44229;DHT22;29904;51.058;5.378;2023-07-31T07:00:18;16.60;99.90
44229;DHT22;29904;51.058;5.378;2023-07-31T07:02:45;16.60;99.90
44229;DHT22;29904;51.058;5.378;2023-07-31T07:05:13;16.60;99.90
44229;DHT22;29904;51.058;5.378;2023-07-31T07:07:39;16.70;99.90
44229;DHT22;29904;51.058;5.378;2023-07-31T07:10:05;16.80;99.90
44229;DHT22;29904;51.058;5.378;2023-07-31T07:12:32;16.80;99.90
44229;DHT22;29904;51.058;5.378;2023-07-31T07:14:58;16.80;99.90
44229;DHT22;29904;51.058;5.378;2023-07-31T07:17:25;16.80;99.90
44229;DHT22;29904;51.058;5.378;2023-07-31T07:19:51;16.90;99.90
44229;DHT22;29904;51.058;5.378;2023-07-31T07:22:17;17.00;99.90
44229;DHT22;29904;51.058;5.378;2023-07-31T07:24:43;17.10;99.90
44229;DHT22;29904;51.058;5.378;2023-07-31T07:27:09;17.10;99.90
44229;DHT22;29904;51.058;5.378;2023-07-31T07:29:35;17.20;99.90
44229;DHT22;29904;51.058;5.378;2023-07-31T07:32:01;17.10;99.90
44229;DHT22;29904;51.058;5.378;2023-07-31T07:34:27;17.10;99.90
44229;DHT22;29904;51.058;5.378;2023-07-31T07:36:54;17.10;99.90
44229;DHT22;29904;51.058;5.378;2023-07-31T07:39:19;17.00;99.90
44229;DHT22;29904;51.058;5.378;2023-07-31T07:41:46;17.00;99.90
44229;DHT22;29904;51.058;5.378;2023-07-31T07:44:12;17.10;99.90
44229;DHT22;29904;51.058;5.378;2023-07-31T07:46:38;17.00;99.90
44229;DHT22;29904;51.058;5.378;2023-07-31T07:49:04;17.10;99.90
44229;DHT22;29904;51.058;5.378;2023-07-31T07:51:30;17.10;99.90
44229;DHT22;29904;51.058;5.378;2023-07-31T07:53:57;17.10;99.90
44229;DHT22;29904;51.058;5.378;2023-07-31T07:56:23;17.10;99.90
44229;DHT22;29904;51.058;5.378;2023-07-31T07:58:50;17.20;99.90
44229;DHT22;29904;51.058;5.378;2023-07-31T08:01:16;17.20;99.90
44229;DHT22;29904;51.058;5.378;2023-07-31T08:03:42;17.30;99.90
44229;DHT22;29904;51.058;5.378;2023-07-31T08:06:07;17.30;99.90
44229;DHT22;29904;51.058;5.378;2023-07-31T08:08:35;17.40;99.90
44229;DHT22;29904;51.058;5.378;2023-07-31T08:11:01;17.40;99.90
44229;DHT22;29904;51.058;5.378;2023-07-31T08:13:27;17.40;99.90
44229;DHT22;29904;51.058;5.378;2023-07-31T08:15:53;17.40;99.90
44229;DHT22;29904;51.058;5.378;2023-07-31T08:18:18;17.50;99.90
44229;DHT22;29904;51.058;5.378;2023-07-31T08:20:44;17.60;99.90
44229;DHT22;29904;51.058;5.378;2023-07-31T08:23:10;17.70;99.90
44229;DHT22;29904;51.058;5.378;2023-07-31T08:25:36;17.80;99.90
44229;DHT22;29904;51.058;5.378;2023-07-31T08:28:03;17.80;99.90
44229;DHT22;29904;51.058;5.378;2023-07-31T08:30:29;17.80;99.90
44229;DHT22;29904;51.058;5.378;2023-07-31T08:32:55;17.70;99.90
44229;DHT22;29904;51.058;5.378;2023-07-31T08:35:21;17.80;99.90
44229;DHT22;29904;51.058;5.378;2023-07-31T08:37:47;17.90;99.90
44229;DHT22;29904;51.058;5.378;2023-07-31T08:40:12;17.90;99.90
44229;DHT22;29904;51.058;5.378;2023-07-31T08:42:57;18.00;99.90
44229;DHT22;29904;51.058;5.378;2023-07-31T08:45:28;18.00;99.90
44229;DHT22;29904;51.058;5.378;2023-07-31T08:47:54;18.00;99.90
44229;DHT22;29904;51.058;5.378;2023-07-31T08:50:21;18.00;99.90
44229;DHT22;29904;51.058;5.378;2023-07-31T08:52:49;18.00;99.90
44229;DHT22;29904;51.058;5.378;2023-07-31T08:55:15;18.10;99.90
44229;DHT22;29904;51.058;5.378;2023-07-31T08:57:42;18.10;99.90
44229;DHT22;29904;51.058;5.378;2023-07-31T09:00:09;18.00;99.90
44229;DHT22;29904;51.058;5.378;2023-07-31T09:02:43;18.00;99.90
44229;DHT22;29904;51.058;5.378;2023-07-31T09:05:11;18.10;99.90
44229;DHT22;29904;51.058;5.378;2023-07-31T09:07:37;18.10;99.90
44229;DHT22;29904;51.058;5.378;2023-07-31T09:10:04;18.20;99.90
44229;DHT22;29904;51.058;5.378;2023-07-31T09:12:30;18.20;99.90
44229;DHT22;29904;51.058;5.378;2023-07-31T09:14:58;18.30;99.90
44229;DHT22;29904;51.058;5.378;2023-07-31T09:17:34;18.40;99.90
44229;DHT22;29904;51.058;5.378;2023-07-31T09:22:43;18.60;99.90
44229;DHT22;29904;51.058;5.378;2023-07-31T09:25:23;18.80;99.90
44229;DHT22;29904;51.058;5.378;2023-07-31T09:27:50;18.90;99.90
44229;DHT22;29904;51.058;5.378;2023-07-31T09:30:16;19.00;99.90
44229;DHT22;29904;51.058;5.378;2023-07-31T09:32:46;19.10;99.90
44229;DHT22;29904;51.058;5.378;2023-07-31T09:35:31;18.90;99.90
44229;DHT22;29904;51.058;5.378;2023-07-31T09:38:06;18.80;99.90
44229;DHT22;29904;51.058;5.378;2023-07-31T09:40:37;18.70;99.90
44229;DHT22;29904;51.058;5.378;2023-07-31T09:43:08;18.70;99.90
44229;DHT22;29904;51.058;5.378;2023-07-31T09:45:35;18.70;99.90
44229;DHT22;29904;51.058;5.378;2023-07-31T09:48:02;18.70;99.90
44229;DHT22;29904;51.058;5.378;2023-07-31T09:50:28;18.70;99.90
44229;DHT22;29904;51.058;5.378;2023-07-31T09:52:55;18.70;99.90
44229;DHT22;29904;51.058;5.378;2023-07-31T09:55:20;18.60;99.90
44229;DHT22;29904;51.058;5.378;2023-07-31T09:57:48;18.70;99.90
44229;DHT22;29904;51.058;5.378;2023-07-31T10:00:16;18.70;99.90
44229;DHT22;29904;51.058;5.378;2023-07-31T10:02:45;18.80;99.90
44229;DHT22;29904;51.058;5.378;2023-07-31T10:05:13;18.80;99.90
44229;DHT22;29904;51.058;5.378;2023-07-31T10:08:02;18.90;99.90
44229;DHT22;29904;51.058;5.378;2023-07-31T10:10:28;18.90;99.90
44229;DHT22;29904;51.058;5.378;2023-07-31T10:12:56;19.10;99.90
44229;DHT22;29904;51.058;5.378;2023-07-31T10:15:22;19.40;99.90
44229;DHT22;29904;51.058;5.378;2023-07-31T10:17:49;19.50;99.90
44229;DHT22;29904;51.058;5.378;2023-07-31T10:20:16;19.50;99.90
44229;DHT22;29904;51.058;5.378;2023-07-31T10:22:42;19.50;99.90
44229;DHT22;29904;51.058;5.378;2023-07-31T10:25:09;19.60;99.90
44229;DHT22;29904;51.058;5.378;2023-07-31T10:27:44;19.80;99.90
44229;DHT22;29904;51.058;5.378;2023-07-31T10:30:15;20.10;99.90
44229;DHT22;29904;51.058;5.378;2023-07-31T10:32:43;20.20;99.90
44229;DHT22;29904;51.058;5.378;2023-07-31T10:35:09;20.50;99.90
44229;DHT22;29904;51.058;5.378;2023-07-31T10:37:43;20.90;99.90
44229;DHT22;29904;51.058;5.378;2023-07-31T10:40:28;21.40;99.90
44229;DHT22;29904;51.058;5.378;2023-07-31T10:42:55;21.80;99.90
44229;DHT22;29904;51.058;5.378;2023-07-31T10:45:39;21.90;99.90
44229;DHT22;29904;51.058;5.378;2023-07-31T10:50:40;21.50;99.90
44229;DHT22;29904;51.058;5.378;2023-07-31T10:53:26;21.20;99.90
44229;DHT22;29904;51.058;5.378;2023-07-31T10:55:52;21.10;99.90
44229;DHT22;29904;51.058;5.378;2023-07-31T10:58:19;21.00;99.90
44229;DHT22;29904;51.058;5.378;2023-07-31T11:00:46;20.90;99.90
44229;DHT22;29904;51.058;5.378;2023-07-31T11:03:16;20.80;99.90
44229;DHT22;29904;51.058;5.378;2023-07-31T11:08:32;20.50;99.90
44229;DHT22;29904;51.058;5.378;2023-07-31T11:13:50;20.40;99.90
44229;DHT22;29904;51.058;5.378;2023-07-31T11:16:19;20.30;99.90
44229;DHT22;29904;51.058;5.378;2023-07-31T11:18:46;20.20;99.90
44229;DHT22;29904;51.058;5.378;2023-07-31T11:21:15;20.20;99.90
44229;DHT22;29904;51.058;5.378;2023-07-31T11:23:45;20.20;99.90
44229;DHT22;29904;51.058;5.378;2023-07-31T11:26:11;20.20;99.90
44229;DHT22;29904;51.058;5.378;2023-07-31T11:28:37;20.20;99.90
44229;DHT22;29904;51.058;5.378;2023-07-31T11:31:04;20.20;99.90
44229;DHT22;29904;51.058;5.378;2023-07-31T11:33:30;20.20;99.90
44229;DHT22;29904;51.058;5.378;2023-07-31T11:35:56;20.10;99.90
44229;DHT22;29904;51.058;5.378;2023-07-31T11:38:29;20.40;99.90
44229;DHT22;29904;51.058;5.378;2023-07-31T11:40:58;20.30;99.90
44229;DHT22;29904;51.058;5.378;2023-07-31T11:43:24;20.30;99.90
44229;DHT22;29904;51.058;5.378;2023-07-31T11:45:52;20.40;99.90
44229;DHT22;29904;51.058;5.378;2023-07-31T11:48:22;20.60;99.90
44229;DHT22;29904;51.058;5.378;2023-07-31T11:50:52;20.80;99.90
44229;DHT22;29904;51.058;5.378;2023-07-31T11:53:22;20.90;99.90
44229;DHT22;29904;51.058;5.378;2023-07-31T11:55:49;21.00;99.90
44229;DHT22;29904;51.058;5.378;2023-07-31T11:58:15;21.00;99.90
44229;DHT22;29904;51.058;5.378;2023-07-31T12:00:42;21.10;99.90
44229;DHT22;29904;51.058;5.378;2023-07-31T12:03:08;21.10;99.90
44229;DHT22;29904;51.058;5.378;2023-07-31T12:05:33;21.20;99.90
44229;DHT22;29904;51.058;5.378;2023-07-31T12:07:59;21.40;99.90
44229;DHT22;29904;51.058;5.378;2023-07-31T12:10:27;21.40;99.90
44229;DHT22;29904;51.058;5.378;2023-07-31T12:12:58;21.30;99.90
44229;DHT22;29904;51.058;5.378;2023-07-31T12:20:34;21.00;99.90
44229;DHT22;29904;51.058;5.378;2023-07-31T12:23:00;20.90;99.90
44229;DHT22;29904;51.058;5.378;2023-07-31T12:25:31;20.90;99.90
44229;DHT22;29904;51.058;5.378;2023-07-31T12:27:57;21.00;99.90
44229;DHT22;29904;51.058;5.378;2023-07-31T12:30:32;21.10;99.90
44229;DHT22;29904;51.058;5.378;2023-07-31T12:33:12;21.20;99.90
44229;DHT22;29904;51.058;5.378;2023-07-31T12:35:41;21.10;99.90
44229;DHT22;29904;51.058;5.378;2023-07-31T12:38:08;21.00;99.90
44229;DHT22;29904;51.058;5.378;2023-07-31T12:40:37;21.00;99.90
44229;DHT22;29904;51.058;5.378;2023-07-31T12:43:03;21.10;99.90
44229;DHT22;29904;51.058;5.378;2023-07-31T12:45:29;21.50;99.90
44229;DHT22;29904;51.058;5.378;2023-07-31T12:47:56;22.10;99.90
44229;DHT22;29904;51.058;5.378;2023-07-31T12:50:22;22.50;99.90
44229;DHT22;29904;51.058;5.378;2023-07-31T12:52:49;23.10;99.90
44229;DHT22;29904;51.058;5.378;2023-07-31T12:55:14;23.20;99.90
44229;DHT22;29904;51.058;5.378;2023-07-31T12:57:40;23.20;99.90
44229;DHT22;29904;51.058;5.378;2023-07-31T13:00:08;23.00;99.90
44229;DHT22;29904;51.058;5.378;2023-07-31T13:02:33;22.90;99.90
44229;DHT22;29904;51.058;5.378;2023-07-31T13:04:59;22.70;99.90
44229;DHT22;29904;51.058;5.378;2023-07-31T13:07:26;22.60;99.90
44229;DHT22;29904;51.058;5.378;2023-07-31T13:09:51;22.40;99.90
44229;DHT22;29904;51.058;5.378;2023-07-31T13:12:17;22.20;99.90
44229;DHT22;29904;51.058;5.378;2023-07-31T13:14:43;22.10;99.90
44229;DHT22;29904;51.058;5.378;2023-07-31T13:17:09;21.90;99.90
44229;DHT22;29904;51.058;5.378;2023-07-31T13:19:35;21.80;99.90
44229;DHT22;29904;51.058;5.378;2023-07-31T13:22:00;21.60;99.90
44229;DHT22;29904;51.058;5.378;2023-07-31T13:24:26;21.50;99.90
44229;DHT22;29904;51.058;5.378;2023-07-31T13:26:52;21.50;99.90
44229;DHT22;29904;51.058;5.378;2023-07-31T13:29:17;21.40;99.90
44229;DHT22;29904;51.058;5.378;2023-07-31T13:31:43;21.30;99.90
44229;DHT22;29904;51.058;5.378;2023-07-31T13:34:09;21.20;99.90
44229;DHT22;29904;51.058;5.378;2023-07-31T13:36:34;21.20;99.90
44229;DHT22;29904;51.058;5.378;2023-07-31T13:39:02;21.10;99.90
44229;DHT22;29904;51.058;5.378;2023-07-31T13:41:28;20.90;99.90
44229;DHT22;29904;51.058;5.378;2023-07-31T13:43:54;20.80;99.90
44229;DHT22;29904;51.058;5.378;2023-07-31T13:46:19;20.80;99.90
44229;DHT22;29904;51.058;5.378;2023-07-31T13:48:45;20.70;99.90
44229;DHT22;29904;51.058;5.378;2023-07-31T13:51:11;20.60;99.90
44229;DHT22;29904;51.058;5.378;2023-07-31T13:53:37;20.70;99.90
44229;DHT22;29904;51.058;5.378;2023-07-31T13:56:03;20.70;99.90
44229;DHT22;29904;51.058;5.378;2023-07-31T13:58:28;20.70;99.90
44229;DHT22;29904;51.058;5.378;2023-07-31T14:00:54;20.80;99.90
44229;DHT22;29904;51.058;5.378;2023-07-31T14:03:20;20.80;99.90
44229;DHT22;29904;51.058;5.378;2023-07-31T14:05:46;20.80;99.90
44229;DHT22;29904;51.058;5.378;2023-07-31T14:08:12;20.70;99.90
44229;DHT22;29904;51.058;5.378;2023-07-31T14:10:37;20.70;99.90
44229;DHT22;29904;51.058;5.378;2023-07-31T14:13:03;20.70;99.90
44229;DHT22;29904;51.058;5.378;2023-07-31T14:15:29;20.60;99.90
44229;DHT22;29904;51.058;5.378;2023-07-31T14:17:54;20.60;99.90
44229;DHT22;29904;51.058;5.378;2023-07-31T14:20:20;20.50;99.90
44229;DHT22;29904;51.058;5.378;2023-07-31T14:22:46;20.40;99.90
44229;DHT22;29904;51.058;5.378;2023-07-31T14:25:11;20.30;99.90
44229;DHT22;29904;51.058;5.378;2023-07-31T14:27:37;20.20;99.90
44229;DHT22;29904;51.058;5.378;2023-07-31T14:30:03;20.00;99.90
44229;DHT22;29904;51.058;5.378;2023-07-31T14:32:29;19.80;99.90
44229;DHT22;29904;51.058;5.378;2023-07-31T14:34:55;19.60;99.90
44229;DHT22;29904;51.058;5.378;2023-07-31T14:37:21;19.40;99.90
44229;DHT22;29904;51.058;5.378;2023-07-31T14:39:46;19.20;99.90
44229;DHT22;29904;51.058;5.378;2023-07-31T14:42:12;19.10;99.90
44229;DHT22;29904;51.058;5.378;2023-07-31T14:44:38;19.00;99.90
44229;DHT22;29904;51.058;5.378;2023-07-31T14:47:04;19.00;99.90
44229;DHT22;29904;51.058;5.378;2023-07-31T14:49:30;18.90;99.90
44229;DHT22;29904;51.058;5.378;2023-07-31T14:51:55;18.90;99.90
44229;DHT22;29904;51.058;5.378;2023-07-31T14:54:21;18.80;99.90
44229;DHT22;29904;51.058;5.378;2023-07-31T14:56:47;18.80;99.90
44229;DHT22;29904;51.058;5.378;2023-07-31T14:59:12;18.80;99.90
44229;DHT22;29904;51.058;5.378;2023-07-31T15:01:38;18.80;99.90
44229;DHT22;29904;51.058;5.378;2023-07-31T15:04:04;18.80;99.90
44229;DHT22;29904;51.058;5.378;2023-07-31T15:06:29;18.80;99.90
44229;DHT22;29904;51.058;5.378;2023-07-31T15:08:55;18.80;99.90
44229;DHT22;29904;51.058;5.378;2023-07-31T15:11:21;18.80;99.90
44229;DHT22;29904;51.058;5.378;2023-07-31T15:13:47;18.70;99.90
44229;DHT22;29904;51.058;5.378;2023-07-31T15:16:12;18.70;99.90
44229;DHT22;29904;51.058;5.378;2023-07-31T15:18:38;18.70;99.90
44229;DHT22;29904;51.058;5.378;2023-07-31T15:21:04;18.60;99.90
44229;DHT22;29904;51.058;5.378;2023-07-31T15:23:32;18.60;99.90
44229;DHT22;29904;51.058;5.378;2023-07-31T15:25:57;18.50;99.90
44229;DHT22;29904;51.058;5.378;2023-07-31T15:28:23;18.50;99.90
44229;DHT22;29904;51.058;5.378;2023-07-31T15:30:49;18.50;99.90
44229;DHT22;29904;51.058;5.378;2023-07-31T15:33:15;18.50;99.90
44229;DHT22;29904;51.058;5.378;2023-07-31T15:35:41;18.50;99.90
44229;DHT22;29904;51.058;5.378;2023-07-31T15:38:07;18.60;99.90
44229;DHT22;29904;51.058;5.378;2023-07-31T15:40:33;18.60;99.90
44229;DHT22;29904;51.058;5.378;2023-07-31T15:42:59;18.50;99.90
44229;DHT22;29904;51.058;5.378;2023-07-31T15:45:27;18.50;99.90
44229;DHT22;29904;51.058;5.378;2023-07-31T15:47:53;18.50;99.90